Time;durP1;ratioP1;P1;durP2;ratioP2;P2;SDS_P1;SDS_P2;PMS_P1;PMS_P2;Temp;Humidity;BMP_temperature;BMP_pressure;BME280_temperature;BME280_humidity;BME280_pressure;Samples;Min_cycle;Max_cycle;Signal;HPM_P1;HPM_P2
2023/05/25 00:00:41;;;;;;;19.27;6.75;;;;;;;6.02;100.00;100079.38;5103500;28;20397;-62
2023/05/25 00:03:09;;;;;;;22.80;6.70;;;;;;;6.03;100.00;100075.69;5101315;28;20093;-63
2023/05/25 00:05:38;;;;;;;18.55;6.57;;;;;;;6.04;100.00;100079.97;5101510;28;20036;-63
2023/05/25 00:08:05;;;;;;;19.60;7.10;;;;;;;5.97;100.00;100074.63;5078600;28;20055;-62
2023/05/25 00:10:32;;;;;;;20.00;6.05;;;;;;;5.86;100.00;100080.41;5102028;28;20090;-64
2023/05/25 00:12:59;;;;;;;17.58;7.10;;;;;;;5.81;100.00;100080.97;5099229;28;20062;-63
2023/05/25 00:15:26;;;;;;;21.45;7.07;;;;;;;5.84;100.00;100077.94;5103242;28;20072;-63
2023/05/25 00:17:54;;;;;;;18.75;6.85;;;;;;;6.02;100.00;100074.03;5094322;28;20035;-63
2023/05/25 00:20:22;;;;;;;18.90;7.68;;;;;;;6.07;100.00;100082.28;5100464;28;20039;-63
2023/05/25 00:22:51;;;;;;;15.68;7.10;;;;;;;6.14;100.00;100076.97;5099988;28;20051;-63
2023/05/25 00:25:19;;;;;;;21.65;8.02;;;;;;;6.01;100.00;100085.69;5099881;28;20494;-63
2023/05/25 00:27:46;;;;;;;14.60;7.45;;;;;;;5.92;100.00;100087.63;5096450;28;20047;-63
2023/05/25 00:30:14;;;;;;;16.77;7.40;;;;;;;5.83;100.00;100084.25;5087530;28;20043;-63
2023/05/25 00:32:41;;;;;;;18.70;7.07;;;;;;;5.84;100.00;100072.63;5085887;28;20044;-63
2023/05/25 00:35:09;;;;;;;21.75;7.07;;;;;;;5.86;100.00;100074.25;5102304;28;20070;-63
2023/05/25 00:37:36;;;;;;;21.85;7.20;;;;;;;5.99;100.00;100087.72;5099961;28;20040;-63
2023/05/25 00:40:06;;;;;;;18.55;7.53;;;;;;;6.07;100.00;100076.13;5100670;28;20104;-64
2023/05/25 00:42:34;;;;;;;19.13;7.18;;;;;;;5.95;100.00;100078.47;5099155;28;20105;-63
2023/05/25 00:45:01;;;;;;;15.95;7.28;;;;;;;6.00;100.00;100084.06;5099338;28;20048;-64
2023/05/25 00:47:28;;;;;;;17.20;7.32;;;;;;;6.17;100.00;100082.75;5080283;28;20036;-63
2023/05/25 00:49:55;;;;;;;18.67;7.22;;;;;;;6.08;100.00;100078.59;5100953;28;20044;-63
2023/05/25 00:52:22;;;;;;;21.15;8.52;;;;;;;6.15;100.00;100070.66;5078197;28;20490;-63
2023/05/25 00:54:50;;;;;;;22.02;9.00;;;;;;;6.47;100.00;100069.25;5087797;28;20560;-63
2023/05/25 00:57:18;;;;;;;23.65;8.43;;;;;;;6.49;100.00;100067.22;5091139;28;20039;-63
2023/05/25 00:59:46;;;;;;;14.30;7.43;;;;;;;6.18;100.00;100065.75;5078993;28;20048;-63
2023/05/25 01:02:16;;;;;;;13.60;7.03;;;;;;;6.10;100.00;100067.75;5102928;28;20050;-63
2023/05/25 01:04:45;;;;;;;16.80;7.47;;;;;;;6.14;100.00;100069.84;5101257;28;20380;-63
2023/05/25 01:07:17;;;;;;;19.08;7.90;;;;;;;6.01;100.00;100061.72;5099889;28;20465;-63
2023/05/25 01:09:44;;;;;;;21.30;6.75;;;;;;;5.81;100.00;100064.19;5101245;28;20048;-63
2023/05/25 01:12:12;;;;;;;11.75;5.60;;;;;;;5.55;100.00;100056.78;5101479;28;20040;-62
2023/05/25 01:14:42;;;;;;;15.00;6.00;;;;;;;5.46;100.00;100063.22;5101219;28;20480;-62
2023/05/25 01:17:12;;;;;;;13.40;5.68;;;;;;;5.35;100.00;100057.41;5104158;28;20126;-62
2023/05/25 01:19:40;;;;;;;10.35;5.35;;;;;;;5.31;100.00;100048.16;5080458;28;20044;-62
2023/05/25 01:22:13;;;;;;;11.65;5.88;;;;;;;5.21;100.00;100052.94;5091899;28;20044;-62
2023/05/25 01:24:42;;;;;;;15.32;6.22;;;;;;;4.95;100.00;100054.28;5089316;28;20120;-62
2023/05/25 01:27:13;;;;;;;11.27;6.23;;;;;;;5.01;100.00;100049.25;5104727;28;20439;-62
2023/05/25 01:29:41;;;;;;;14.40;5.82;;;;;;;5.10;100.00;100048.94;5099805;28;20490;-62
2023/05/25 01:32:09;;;;;;;10.18;6.75;;;;;;;5.03;100.00;100048.03;5095742;28;20390;-62
2023/05/25 01:34:36;;;;;;;18.95;7.32;;;;;;;5.06;100.00;100049.50;5098322;28;20516;-62
2023/05/25 01:37:04;;;;;;;15.07;6.70;;;;;;;5.13;100.00;100043.25;5100206;28;20135;-62
2023/05/25 01:39:33;;;;;;;18.30;7.57;;;;;;;4.99;100.00;100052.06;5100446;28;20048;-62
2023/05/25 01:42:01;;;;;;;15.60;7.40;;;;;;;5.00;100.00;100052.91;5100230;28;20063;-62
2023/05/25 01:44:41;;;;;;;19.17;7.22;;;;;;;5.02;100.00;100048.22;5079712;28;20105;-62
2023/05/25 01:47:13;;;;;;;18.17;7.82;;;;;;;5.12;100.00;100048.78;5078322;28;20048;-62
2023/05/25 01:49:43;;;;;;;15.68;7.40;;;;;;;5.06;100.00;100054.81;5101316;28;20056;-62
2023/05/25 01:52:18;;;;;;;17.10;7.57;;;;;;;4.94;100.00;100050.00;5085926;28;20461;-62
2023/05/25 01:54:48;;;;;;;19.10;7.45;;;;;;;5.07;100.00;100048.50;5103164;28;20135;-62
2023/05/25 01:57:15;;;;;;;17.45;7.78;;;;;;;5.31;100.00;100050.00;5077291;28;20379;-62
2023/05/25 01:59:44;;;;;;;21.52;7.68;;;;;;;5.44;100.00;100046.63;5081061;28;20040;-64
2023/05/25 02:02:12;;;;;;;19.60;8.15;;;;;;;5.34;100.00;100053.09;5084691;28;20123;-63
2023/05/25 02:04:39;;;;;;;17.85;7.78;;;;;;;5.17;100.00;100057.81;5078175;28;20573;-63
2023/05/25 02:07:06;;;;;;;16.55;7.80;;;;;;;5.31;100.00;100056.13;5097605;28;20070;-64
2023/05/25 02:09:34;;;;;;;13.77;7.20;;;;;;;5.13;100.00;100051.22;5098311;28;20047;-63
2023/05/25 02:12:06;;;;;;;17.57;7.63;;;;;;;5.19;100.00;100047.00;5083869;28;20039;-62
2023/05/25 02:14:35;;;;;;;16.23;7.65;;;;;;;5.36;100.00;100052.91;5083472;28;20300;-62
2023/05/25 02:17:03;;;;;;;18.95;7.15;;;;;;;5.32;100.00;100052.47;5077963;28;20490;-62
2023/05/25 02:19:30;;;;;;;16.90;7.53;;;;;;;4.92;100.00;100054.66;5103314;28;20068;-62
2023/05/25 02:21:58;;;;;;;18.85;7.65;;;;;;;4.87;100.00;100048.25;5092987;28;20501;-62
2023/05/25 02:24:26;;;;;;;13.90;7.13;;;;;;;4.64;100.00;100056.31;5080903;28;20436;-62
2023/05/25 02:26:53;;;;;;;11.13;6.15;;;;;;;4.61;100.00;100056.69;5098325;28;20079;-62
2023/05/25 02:29:22;;;;;;;18.58;7.00;;;;;;;4.48;100.00;100055.50;5080079;28;20067;-62
2023/05/25 02:31:52;;;;;;;16.42;6.70;;;;;;;4.61;100.00;100059.34;5076903;28;20039;-62
2023/05/25 02:34:20;;;;;;;10.25;6.20;;;;;;;4.67;100.00;100059.44;5095866;28;20048;-62
2023/05/25 02:36:47;;;;;;;14.07;6.93;;;;;;;4.49;100.00;100066.94;5078402;28;20123;-62
2023/05/25 02:39:15;;;;;;;16.88;7.10;;;;;;;4.69;100.00;100061.91;5099882;28;20043;-62
2023/05/25 02:41:42;;;;;;;20.42;7.90;;;;;;;5.06;100.00;100058.28;5078723;28;20044;-62
2023/05/25 02:44:10;;;;;;;17.42;7.93;;;;;;;4.67;100.00;100075.38;5091594;28;20477;-62
2023/05/25 02:46:39;;;;;;;18.00;6.72;;;;;;;4.66;100.00;100068.41;5064159;28;20047;-62
2023/05/25 02:49:07;;;;;;;13.40;6.68;;;;;;;4.63;100.00;100067.97;5064580;28;20051;-62
2023/05/25 02:51:38;;;;;;;12.52;7.00;;;;;;;4.65;100.00;100069.41;5070049;28;20047;-62
2023/05/25 02:54:07;;;;;;;19.17;7.45;;;;;;;4.69;100.00;100067.22;5084875;28;20093;-62
2023/05/25 02:56:37;;;;;;;25.25;8.07;;;;;;;5.14;100.00;100071.50;5060137;28;20404;-62
2023/05/25 02:59:06;;;;;;;;;;;;;;;5.11;100.00;100079.00;5078164;28;20064;-61
2023/05/25 03:01:39;;;;;;;22.63;8.15;;;;;;;5.04;100.00;100072.78;5093977;28;19924;-61
2023/05/25 03:04:08;;;;;;;17.48;7.90;;;;;;;5.09;100.00;100068.56;5072485;28;20042;-63
2023/05/25 03:06:39;;;;;;;25.45;9.45;;;;;;;5.44;100.00;100076.69;5080752;28;20046;-61
2023/05/25 03:09:11;;;;;;;20.85;9.10;;;;;;;5.54;100.00;100079.06;5081033;28;20079;-61
2023/05/25 03:11:39;;;;;;;18.33;8.63;;;;;;;5.32;100.00;100084.38;5066007;28;20044;-61
2023/05/25 03:14:07;;;;;;;24.88;9.23;;;;;;;5.50;100.00;100080.47;5082683;28;20055;-61
2023/05/25 03:16:38;;;;;;;23.10;9.07;;;;;;;5.54;100.00;100093.19;5083350;28;20055;-61
2023/05/25 03:19:06;;;;;;;27.30;9.63;;;;;;;5.62;100.00;100101.06;5087237;28;20054;-63
2023/05/25 03:21:37;;;;;;;14.93;8.35;;;;;;;5.39;100.00;100098.56;5083506;28;20044;-63
2023/05/25 03:24:07;;;;;;;22.77;8.57;;;;;;;5.43;100.00;100106.16;5084039;28;20044;-63
2023/05/25 03:26:38;;;;;;;25.38;9.00;;;;;;;5.38;100.00;100088.91;5079322;28;20048;-62
2023/05/25 03:29:06;;;;;;;17.23;7.40;;;;;;;5.09;100.00;100102.25;5084265;28;20074;-62
2023/05/25 03:31:34;;;;;;;15.85;7.05;;;;;;;4.81;100.00;100102.09;5082753;28;20058;-62
2023/05/25 03:34:02;;;;;;;12.15;6.60;;;;;;;4.61;100.00;100097.34;5068615;28;20075;-62
2023/05/25 03:36:32;;;;;;;14.63;7.35;;;;;;;4.75;100.00;100098.38;5078409;28;20443;-63
2023/05/25 03:39:01;;;;;;;12.35;7.25;;;;;;;4.98;100.00;100091.09;5079424;28;20096;-62
2023/05/25 03:41:30;;;;;;;21.20;7.95;;;;;;;4.71;100.00;100103.19;5074370;28;20136;-62
2023/05/25 03:44:00;;;;;;;21.85;9.48;;;;;;;5.17;100.00;100091.56;5076023;28;20047;-62
2023/05/25 03:46:27;;;;;;;24.50;8.68;;;;;;;5.43;100.00;100106.16;5080461;28;20143;-62
2023/05/25 03:48:58;;;;;;;23.95;9.23;;;;;;;5.79;100.00;100104.31;5091631;28;20044;-63
2023/05/25 03:51:26;;;;;;;19.77;7.72;;;;;;;6.07;100.00;100100.91;5077054;28;20036;-62
2023/05/25 03:53:55;;;;;;;16.92;7.65;;;;;;;6.13;100.00;100104.63;5079227;28;20130;-62
2023/05/25 03:56:26;;;;;;;;;;;;;;;6.30;100.00;100107.84;5100229;28;20541;-62
2023/05/25 03:58:53;;;;;;;16.95;7.47;;;;;;;7.68;100.00;100108.72;5079164;28;20010;-62
2023/05/25 04:01:21;;;;;;;21.83;7.40;;;;;;;8.24;96.66;100104.88;5097846;28;20067;-62
2023/05/25 04:03:48;;;;;;;14.93;6.38;;;;;;;9.17;92.71;100112.78;5100449;28;20048;-62
2023/05/25 04:06:18;;;;;;;10.85;5.93;;;;;;;9.33;84.63;100114.13;5099021;28;20040;-62
2023/05/25 04:08:45;;;;;;;15.30;6.53;;;;;;;9.40;86.69;100122.97;5086933;28;20141;-62
2023/05/25 04:11:12;;;;;;;14.38;6.50;;;;;;;9.75;85.75;100109.19;5062532;28;20051;-62
2023/05/25 04:13:44;;;;;;;15.73;6.05;;;;;;;9.72;82.31;100119.28;5093482;28;20063;-62
2023/05/25 04:16:13;;;;;;;18.95;6.50;;;;;;;8.57;89.98;100124.44;5106836;28;20051;-62
2023/05/25 04:18:44;;;;;;;16.38;7.25;;;;;;;8.77;90.20;100131.59;5083620;28;20443;-62
2023/05/25 04:21:15;;;;;;;18.40;7.38;;;;;;;9.89;83.66;100126.81;5078807;28;20048;-62
2023/05/25 04:23:43;;;;;;;12.98;6.20;;;;;;;11.76;75.45;100126.59;5092239;28;20485;-62
2023/05/25 04:26:14;;;;;;;;;;;;;;;11.05;76.40;100140.69;5081595;28;20125;-62
2023/05/25 04:28:44;;;;;;;13.50;5.63;;;;;;;11.22;76.35;100149.78;5087221;28;19920;-61
2023/05/25 04:31:37;;;;;;;13.85;5.80;;;;;;;12.60;70.08;100152.59;5097828;28;20323;-62
2023/05/25 04:34:14;;;;;;;16.70;6.07;;;;;;;13.85;65.75;100162.00;5106110;28;20043;-62
2023/05/25 04:36:49;;;;;;;13.60;5.35;;;;;;;14.05;64.21;100155.34;5083084;28;20043;-62
2023/05/25 04:39:19;;;;;;;15.30;5.43;;;;;;;13.52;64.85;100152.75;5082075;28;20048;-62
2023/05/25 04:41:52;;;;;;;12.90;5.50;;;;;;;13.13;70.71;100160.56;5083945;28;20036;-62
2023/05/25 04:44:21;;;;;;;14.75;5.70;;;;;;;11.94;72.97;100167.91;5107300;28;20503;-62
2023/05/25 04:46:54;;;;;;;9.80;5.20;;;;;;;13.53;71.57;100158.97;5102769;28;20130;-62
2023/05/25 04:49:27;;;;;;;14.20;5.88;;;;;;;14.74;61.32;100158.66;5071553;28;20043;-62
2023/05/25 04:51:55;;;;;;;9.15;4.45;;;;;;;15.23;55.84;100161.50;5093636;28;20051;-62
2023/05/25 04:54:22;;;;;;;6.72;4.38;;;;;;;14.82;55.94;100166.34;5071338;28;20386;-62
2023/05/25 04:56:52;;;;;;;14.18;4.85;;;;;;;15.39;54.59;100175.22;5083773;28;20466;-62
2023/05/25 04:59:38;;;;;;;14.13;5.40;;;;;;;16.02;52.93;100179.19;5098014;28;20068;-62
2023/05/25 05:02:07;;;;;;;11.48;4.78;;;;;;;17.21;50.49;100179.84;5090675;28;20287;-62
2023/05/25 05:04:36;;;;;;;16.20;5.28;;;;;;;17.91;50.02;100176.88;5072637;28;20052;-62
2023/05/25 05:07:08;;;;;;;15.80;5.07;;;;;;;17.56;49.84;100186.50;5083290;28;20379;-63
2023/05/25 05:09:43;;;;;;;18.33;5.43;;;;;;;15.70;55.07;100187.22;5098456;28;20048;-62
2023/05/25 05:12:10;;;;;;;17.73;5.32;;;;;;;16.37;55.08;100181.44;5083503;28;20032;-61
2023/05/25 05:14:43;;;;;;;15.80;5.30;;;;;;;16.23;54.32;100195.63;5102590;28;20046;-63
2023/05/25 05:17:13;;;;;;;17.15;5.45;;;;;;;17.36;52.25;100198.09;5102944;28;20039;-63
2023/05/25 05:19:41;;;;;;;20.45;5.68;;;;;;;15.05;57.13;100208.53;5101537;28;20485;-62
2023/05/25 05:22:12;;;;;;;19.17;5.45;;;;;;;16.43;54.83;100216.66;5081812;28;20036;-63
2023/05/25 05:24:42;;;;;;;20.17;5.65;;;;;;;16.61;53.29;100210.84;5087611;28;20044;-63
2023/05/25 05:27:12;;;;;;;;;;;;;;;16.35;54.73;100226.84;5080275;28;20513;-62
2023/05/25 05:29:47;;;;;;;22.27;5.53;;;;;;;17.64;50.90;100223.13;5101857;28;19920;-63
2023/05/25 05:32:14;;;;;;;19.83;5.38;;;;;;;18.51;50.46;100234.22;5086306;28;20078;-61
2023/05/25 05:34:42;;;;;;;22.60;5.75;;;;;;;17.52;51.05;100236.91;5075491;28;20075;-63
2023/05/25 05:37:27;;;;;;;19.58;5.93;;;;;;;16.33;53.29;100239.81;5083532;28;20044;-63
2023/05/25 05:39:54;;;;;;;23.92;6.13;;;;;;;16.95;53.92;100241.19;5098756;28;20043;-62
2023/05/25 05:42:22;;;;;;;26.65;5.75;;;;;;;16.49;55.46;100242.66;5088210;28;20078;-63
2023/05/25 05:44:50;;;;;;;15.25;5.43;;;;;;;17.60;53.02;100241.03;5078479;28;20059;-63
2023/05/25 05:47:18;;;;;;;12.60;5.53;;;;;;;17.63;52.45;100243.19;5084497;28;20134;-63
2023/05/25 05:49:46;;;;;;;11.90;5.40;;;;;;;17.21;54.09;100244.88;5097213;28;20105;-63
2023/05/25 05:52:16;;;;;;;13.63;5.18;;;;;;;18.21;51.83;100241.25;5094905;28;20043;-63
2023/05/25 05:54:46;;;;;;;11.85;5.65;;;;;;;18.06;50.96;100238.50;5079803;28;20474;-63
2023/05/25 05:57:16;;;;;;;13.15;5.43;;;;;;;19.98;47.04;100240.47;5100282;28;20130;-63
2023/05/25 05:59:43;;;;;;;15.07;5.80;;;;;;;20.78;46.63;100239.41;5087997;28;20044;-62
2023/05/25 06:02:12;;;;;;;13.90;5.35;;;;;;;20.24;46.37;100248.47;5098959;28;20147;-61
2023/05/25 06:04:42;;;;;;;14.98;5.80;;;;;;;20.15;46.64;100244.75;5087697;28;20043;-62
2023/05/25 06:07:10;;;;;;;16.88;5.82;;;;;;;20.34;46.41;100256.56;5088509;28;20040;-61
2023/05/25 06:09:39;;;;;;;17.05;5.93;;;;;;;21.09;44.40;100252.75;5086147;28;20091;-61
2023/05/25 06:12:07;;;;;;;20.90;6.15;;;;;;;21.53;45.17;100251.78;5101647;28;20036;-63
2023/05/25 06:14:34;;;;;;;22.17;6.53;;;;;;;20.07;46.09;100253.47;5092671;28;20088;-60
2023/05/25 06:17:04;;;;;;;34.95;6.28;;;;;;;20.99;45.14;100248.22;5101562;28;20032;-62
2023/05/25 06:19:35;;;;;;;23.38;6.15;;;;;;;20.70;45.42;100244.66;5098650;28;20047;-63
2023/05/25 06:22:04;;;;;;;18.42;6.53;;;;;;;21.89;42.65;100237.69;5065406;28;20039;-62
2023/05/25 06:24:31;;;;;;;17.27;5.70;;;;;;;19.45;48.05;100237.41;5097774;28;20123;-62
2023/05/25 06:26:59;;;;;;;19.13;6.10;;;;;;;19.89;47.40;100246.78;5088616;28;20044;-62
2023/05/25 06:29:26;;;;;;;15.13;5.97;;;;;;;22.10;43.04;100249.94;5092937;28;20402;-61
2023/05/25 06:31:54;;;;;;;15.25;5.85;;;;;;;21.86;44.12;100239.06;5084533;28;20043;-62
2023/05/25 06:34:21;;;;;;;16.00;6.40;;;;;;;21.59;44.31;100255.25;5079638;28;20051;-62
2023/05/25 06:36:50;;;;;;;14.27;5.88;;;;;;;20.38;45.41;100254.94;5099173;28;20044;-63
2023/05/25 06:39:18;;;;;;;19.95;5.70;;;;;;;20.20;47.07;100258.31;5095809;28;20042;-62
2023/05/25 06:41:45;;;;;;;15.15;6.00;;;;;;;20.18;46.75;100263.22;5067419;28;20140;-62
2023/05/25 06:44:16;;;;;;;16.17;6.38;;;;;;;21.06;44.92;100265.03;5076801;28;20328;-62
2023/05/25 06:46:47;;;;;;;14.27;5.80;;;;;;;20.04;46.61;100261.13;5082148;28;20054;-62
2023/05/25 06:49:15;;;;;;;21.27;6.35;;;;;;;20.15;46.93;100256.44;5082053;28;20036;-61
2023/05/25 06:51:50;;;;;;;16.15;6.53;;;;;;;21.97;43.55;100262.41;5102991;28;20047;-62
2023/05/25 06:54:21;;;;;;;18.90;6.03;;;;;;;22.90;41.73;100250.94;5099359;28;20578;-62
2023/05/25 06:56:48;;;;;;;19.85;6.05;;;;;;;21.63;43.78;100248.13;5100187;28;20071;-62
2023/05/25 06:59:17;;;;;;;17.35;6.22;;;;;;;19.19;48.17;100252.94;5098789;28;20071;-62
2023/05/25 07:01:45;;;;;;;20.50;6.50;;;;;;;17.90;51.15;100259.34;5092503;28;20052;-63
2023/05/25 07:04:13;;;;;;;15.80;6.32;;;;;;;20.43;46.24;100267.69;5083115;28;20432;-62
2023/05/25 07:06:40;;;;;;;16.15;6.13;;;;;;;20.42;47.11;100263.38;5097308;28;20563;-62
2023/05/25 07:09:07;;;;;;;17.98;6.90;;;;;;;20.15;46.95;100255.63;5100163;28;20483;-62
2023/05/25 07:11:40;;;;;;;17.50;5.80;;;;;;;20.75;46.15;100256.31;5096853;28;20052;-62
2023/05/25 07:14:10;;;;;;;15.05;6.60;;;;;;;20.12;46.42;100264.34;5085937;28;20151;-62
2023/05/25 07:16:40;;;;;;;18.00;6.38;;;;;;;20.86;46.10;100267.94;5096174;28;20048;-63
2023/05/25 07:19:09;;;;;;;17.15;6.30;;;;;;;20.43;46.59;100265.78;5081410;28;20032;-63
2023/05/25 07:21:39;;;;;;;19.45;7.18;;;;;;;19.11;50.01;100248.88;5082279;28;20071;-63
2023/05/25 07:24:06;;;;;;;16.60;6.38;;;;;;;20.15;47.33;100252.91;5077322;28;20055;-60
2023/05/25 07:26:36;;;;;;;15.75;6.07;;;;;;;20.52;46.96;100259.72;5075262;28;20393;-63
2023/05/25 07:29:11;;;;;;;15.60;6.00;;;;;;;21.71;45.13;100261.91;5100886;28;20131;-61
2023/05/25 07:31:41;;;;;;;13.38;5.75;;;;;;;21.83;44.41;100261.50;5109210;28;20146;-61
2023/05/25 07:34:08;;;;;;;15.77;5.93;;;;;;;21.39;45.48;100262.56;5104509;28;20063;-63
2023/05/25 07:36:41;;;;;;;14.02;6.38;;;;;;;19.65;48.93;100269.16;5106118;28;20075;-63
2023/05/25 07:39:10;;;;;;;16.80;6.78;;;;;;;18.40;50.68;100265.97;5101992;28;20035;-63
2023/05/25 07:41:40;;;;;;;17.25;6.35;;;;;;;19.43;49.12;100255.91;5098653;28;20040;-63
2023/05/25 07:44:08;;;;;;;17.00;6.80;;;;;;;19.14;49.94;100259.19;5086256;28;20063;-62
2023/05/25 07:46:36;;;;;;;17.00;6.30;;;;;;;19.64;49.37;100250.38;5104515;28;20043;-62
2023/05/25 07:49:05;;;;;;;12.77;5.63;;;;;;;22.50;44.43;100253.22;5096307;28;20436;-62
2023/05/25 07:51:39;;;;;;;16.02;6.75;;;;;;;20.10;48.02;100250.22;5098772;28;20289;-62
2023/05/25 07:54:08;;;;;;;14.80;6.10;;;;;;;21.62;44.78;100254.69;5085972;28;20055;-62
2023/05/25 07:56:37;;;;;;;16.17;6.68;;;;;;;19.71;48.22;100261.81;5087653;28;20048;-62
2023/05/25 07:59:04;;;;;;;20.23;6.20;;;;;;;21.66;44.89;100252.97;5096159;28;20054;-62
2023/05/25 08:01:34;;;;;;;19.05;6.50;;;;;;;21.74;44.98;100253.16;5081841;28;20421;-62
2023/05/25 08:04:08;;;;;;;19.38;6.68;;;;;;;22.26;43.36;100257.94;5098571;28;20044;-62
2023/05/25 08:06:37;;;;;;;21.73;7.10;;;;;;;22.30;43.48;100250.81;5103904;28;20068;-62
2023/05/25 08:09:07;;;;;;;18.98;5.95;;;;;;;21.62;45.37;100255.50;5096505;28;20375;-62
2023/05/25 08:11:38;;;;;;;21.38;6.13;;;;;;;21.35;46.12;100255.22;5098906;28;20132;-62
2023/05/25 08:14:08;;;;;;;21.48;6.28;;;;;;;20.40;47.73;100260.09;5095025;28;20035;-62
2023/05/25 08:16:37;;;;;;;18.63;6.95;;;;;;;21.32;45.65;100257.44;5092959;28;20055;-62
2023/05/25 08:19:04;;;;;;;16.13;5.95;;;;;;;21.04;46.61;100252.78;5082140;28;20092;-62
2023/05/25 08:21:33;;;;;;;18.38;6.38;;;;;;;21.18;45.67;100251.03;5106709;28;20134;-62
2023/05/25 08:24:02;;;;;;;15.85;6.20;;;;;;;22.79;43.19;100246.75;5107255;28;20043;-62
2023/05/25 08:26:29;;;;;;;12.95;5.60;;;;;;;23.13;42.00;100242.91;5101707;28;20147;-62
2023/05/25 08:28:57;;;;;;;16.17;5.82;;;;;;;21.33;44.04;100253.59;5100280;28;20279;-62
2023/05/25 08:31:24;;;;;;;18.10;5.22;;;;;;;19.91;47.48;100250.03;5103785;28;20134;-62
2023/05/25 08:33:53;;;;;;;15.30;5.75;;;;;;;18.95;49.34;100250.00;5079042;28;20443;-62
2023/05/25 08:36:20;;;;;;;17.10;5.60;;;;;;;20.58;48.27;100247.75;5091594;28;20048;-62
2023/05/25 08:38:47;;;;;;;15.02;5.25;;;;;;;20.14;47.31;100251.25;5099885;28;20094;-62
2023/05/25 08:41:18;;;;;;;15.45;5.70;;;;;;;20.11;46.69;100246.38;5095532;28;20040;-62
2023/05/25 08:43:45;;;;;;;16.13;5.30;;;;;;;19.65;48.51;100247.41;5094841;28;20044;-62
2023/05/25 08:46:12;;;;;;;21.45;6.15;;;;;;;20.97;45.53;100246.88;5082194;28;20031;-62
2023/05/25 08:48:40;;;;;;;22.30;5.07;;;;;;;22.23;43.02;100242.16;5098991;28;20048;-61
2023/05/25 08:51:10;;;;;;;16.40;5.45;;;;;;;21.83;44.00;100245.13;5079388;27;20062;-63
2023/05/25 08:53:40;;;;;;;15.45;5.53;;;;;;;20.15;45.83;100239.31;5101545;28;20134;-62
2023/05/25 08:56:11;;;;;;;12.77;5.20;;;;;;;20.97;44.21;100244.16;5097630;28;20488;-62
2023/05/25 08:58:44;;;;;;;12.63;5.28;;;;;;;20.94;43.99;100245.50;5087675;28;20130;-62
2023/05/25 09:01:12;;;;;;;12.05;4.72;;;;;;;19.53;46.22;100250.44;5100375;28;20710;-62
2023/05/25 09:03:43;;;;;;;9.95;4.55;;;;;;;18.65;47.36;100238.03;5102579;28;20101;-62
2023/05/25 09:06:12;;;;;;;9.93;4.53;;;;;;;17.67;49.82;100252.41;5106175;28;20043;-61
2023/05/25 09:08:42;;;;;;;19.58;5.03;;;;;;;19.13;47.00;100243.19;5098869;28;20132;-61
2023/05/25 09:11:08;;;;;;;;;;;;;;;18.31;47.92;100235.81;5101397;28;20109;-61
2023/05/25 09:13:39;;;;;;;12.55;4.43;;;;;;;17.86;49.28;100248.19;5096363;28;19927;-61
2023/05/25 09:16:10;;;;;;;16.13;4.68;;;;;;;18.58;48.20;100253.78;5102471;28;20040;-61
2023/05/25 09:18:37;;;;;;;9.00;4.60;;;;;;;19.61;46.91;100249.84;5094493;28;20044;-62
2023/05/25 09:21:05;;;;;;;13.00;4.43;;;;;;;18.43;48.57;100248.34;5094736;28;20138;-61
2023/05/25 09:23:34;;;;;;;15.90;4.85;;;;;;;18.93;47.63;100235.88;5099348;28;20052;-62
2023/05/25 09:26:01;;;;;;;12.47;4.80;;;;;;;20.65;44.83;100248.25;5104570;28;20076;-62
2023/05/25 09:28:28;;;;;;;15.73;4.47;;;;;;;20.41;45.60;100248.09;5105719;28;20131;-62
2023/05/25 09:30:58;;;;;;;11.18;5.13;;;;;;;18.87;47.74;100247.81;5101989;28;20046;-62
2023/05/25 09:33:25;;;;;;;11.65;4.65;;;;;;;19.71;46.72;100253.66;5099520;28;20044;-61
2023/05/25 09:35:52;;;;;;;10.55;4.93;;;;;;;18.83;47.34;100242.13;5099644;28;20032;-63
2023/05/25 09:38:19;;;;;;;15.43;4.68;;;;;;;20.30;45.87;100243.84;5095736;28;20040;-61
2023/05/25 09:40:47;;;;;;;14.60;4.10;;;;;;;19.54;45.62;100243.06;5093387;28;20043;-61
2023/05/25 09:43:15;;;;;;;11.27;4.07;;;;;;;19.12;46.96;100236.94;5091968;28;20039;-62
2023/05/25 09:45:42;;;;;;;15.63;4.35;;;;;;;21.03;43.75;100237.56;5101374;28;20039;-62
2023/05/25 09:48:11;;;;;;;;;;;;;;;20.91;43.47;100232.47;5101123;28;20142;-62
2023/05/25 09:50:42;;;;;;;11.90;4.05;;;;;;;21.09;43.03;100233.66;5097666;28;20217;-62
2023/05/25 09:53:15;;;;;;;9.70;3.67;;;;;;;21.23;43.24;100231.88;5098095;28;20040;-62
2023/05/25 09:55:42;;;;;;;11.45;4.32;;;;;;;22.30;41.33;100232.50;5084173;28;20047;-61
2023/05/25 09:58:12;;;;;;;15.48;4.03;;;;;;;22.51;39.67;100219.31;5091010;28;20044;-62
2023/05/25 10:00:41;;;;;;;9.57;4.10;;;;;;;20.68;42.48;100228.59;5096979;28;20172;-62
2023/05/25 10:03:12;;;;;;;8.43;3.50;;;;;;;21.21;41.65;100220.44;5084567;28;20036;-62
2023/05/25 10:05:40;;;;;;;11.23;3.85;;;;;;;20.04;43.02;100238.53;5103134;28;20040;-61
2023/05/25 10:08:08;;;;;;;10.50;3.70;;;;;;;20.41;43.03;100232.56;5089287;28;20438;-61
2023/05/25 10:10:35;;;;;;;9.40;4.15;;;;;;;20.56;42.36;100233.59;5083770;28;20067;-61
2023/05/25 10:13:02;;;;;;;11.55;4.55;;;;;;;20.09;42.89;100224.88;5102123;28;20058;-62
2023/05/25 10:15:31;;;;;;;13.43;3.83;;;;;;;18.73;45.13;100232.06;5095661;28;20044;-61
2023/05/25 10:18:01;;;;;;;11.25;4.20;;;;;;;18.44;45.87;100230.97;5101122;28;20063;-61
2023/05/25 10:20:29;;;;;;;10.10;4.05;;;;;;;19.65;44.77;100225.66;5099527;28;20574;-61
2023/05/25 10:22:59;;;;;;;9.73;3.70;;;;;;;21.25;41.41;100229.69;5099343;28;20059;-61
2023/05/25 10:25:26;;;;;;;;;;;;;;;19.95;43.38;100227.44;5102612;28;20035;-61
2023/05/25 10:27:56;;;;;;;11.57;3.88;;;;;;;18.44;46.66;100233.69;5104344;28;20312;-61
2023/05/25 10:30:24;;;;;;;8.45;3.92;;;;;;;19.83;44.94;100229.66;5098000;28;20444;-61
2023/05/25 10:32:53;;;;;;;9.55;3.83;;;;;;;19.17;45.08;100222.53;5104603;28;20032;-61
2023/05/25 10:35:20;;;;;;;10.35;5.07;;;;;;;20.50;42.31;100229.28;5078747;28;20070;-60
2023/05/25 10:37:48;;;;;;;15.00;4.20;;;;;;;20.59;43.59;100222.13;5096083;28;20046;-61
2023/05/25 10:40:16;;;;;;;8.98;3.75;;;;;;;21.29;42.56;100222.56;5099271;28;20041;-61
2023/05/25 10:42:43;;;;;;;12.48;3.95;;;;;;;20.53;42.01;100220.53;5100830;28;20047;-61
2023/05/25 10:45:10;;;;;;;7.43;3.47;;;;;;;18.93;44.72;100233.16;5097406;28;20044;-62
2023/05/25 10:47:41;;;;;;;10.73;4.38;;;;;;;19.43;45.14;100226.00;5101001;28;20043;-61
2023/05/25 10:50:18;;;;;;;8.48;3.67;;;;;;;20.29;43.14;100223.13;5091169;28;20048;-61
2023/05/25 10:52:46;;;;;;;8.80;3.83;;;;;;;18.99;44.46;100223.09;5080721;28;20047;-61
2023/05/25 10:55:13;;;;;;;9.05;4.05;;;;;;;20.03;43.57;100221.41;5101715;28;20340;-61
2023/05/25 10:57:44;;;;;;;7.38;3.38;;;;;;;20.23;41.98;100219.66;5100752;28;20040;-61
2023/05/25 11:00:12;;;;;;;10.13;3.80;;;;;;;19.56;43.01;100222.69;5093321;28;20071;-61
2023/05/25 11:02:49;;;;;;;7.38;3.28;;;;;;;20.03;42.55;100220.59;5094482;28;20060;-61
2023/05/25 11:05:37;;;;;;;7.70;3.85;;;;;;;19.15;43.05;100222.00;5107350;28;20047;-60
2023/05/25 11:08:08;;;;;;;9.60;3.92;;;;;;;18.89;43.08;100210.34;5107261;28;20048;-61
2023/05/25 11:10:51;;;;;;;7.93;3.45;;;;;;;19.06;43.65;100213.56;5095252;28;20062;-61
2023/05/25 11:13:34;;;;;;;8.27;3.55;;;;;;;19.92;41.68;100195.34;5098204;28;20789;-61
2023/05/25 11:16:20;;;;;;;9.68;4.30;;;;;;;20.58;41.12;100198.72;5103493;28;20094;-60
2023/05/25 11:18:51;;;;;;;12.10;4.00;;;;;;;19.58;42.36;100201.47;5107500;28;20561;-60
2023/05/25 11:21:24;;;;;;;23.95;4.55;;;;;;;20.58;41.72;100199.53;5102160;28;20092;-60
2023/05/25 11:23:55;;;;;;;8.18;3.63;;;;;;;20.30;41.37;100205.72;5104375;28;20044;-60
2023/05/25 11:26:22;;;;;;;10.82;3.60;;;;;;;19.95;42.31;100202.13;5081827;28;20042;-60
2023/05/25 11:28:52;;;;;;;10.50;3.72;;;;;;;19.92;42.42;100203.50;5104611;28;20154;-63